createdAt,value
2018-05-10T00:00:46.274Z,59.20
2018-05-10T00:03:13.231Z,59.82
2018-05-10T00:05:40.131Z,59.65
2018-05-10T00:08:07.804Z,60.40
2018-05-10T00:10:34.699Z,60.34
2018-05-10T00:13:01.595Z,60.32
2018-05-10T00:15:29.418Z,60.48
2018-05-10T00:17:56.308Z,61.30
2018-05-10T00:20:23.193Z,61.78
2018-05-10T00:22:50.242Z,61.17
2018-05-10T00:25:17.129Z,60.52
2018-05-10T00:27:44.803Z,60.21
2018-05-10T00:30:12.936Z,60.44
2018-05-10T00:32:39.815Z,60.88
2018-05-10T00:35:06.718Z,61.66
2018-05-10T00:37:33.860Z,61.64
2018-05-10T00:40:00.749Z,61.69
2018-05-10T00:42:27.637Z,61.38
2018-05-10T00:44:54.764Z,61.61
2018-05-10T00:47:22.412Z,61.13
2018-05-10T00:49:50.062Z,61.07
2018-05-10T00:52:17.083Z,62.49
2018-05-10T00:54:53.927Z,62.96
2018-05-10T00:57:20.950Z,62.18
2018-05-10T00:59:47.878Z,62.46
2018-05-10T01:02:15.542Z,62.67
2018-05-10T01:04:42.545Z,62.82
2018-05-10T01:07:09.420Z,63.29
2018-05-10T01:09:36.319Z,63.34
2018-05-10T01:12:03.404Z,62.89
2018-05-10T01:14:30.286Z,62.65
2018-05-10T01:16:57.196Z,62.96
2018-05-10T01:19:24.136Z,63.11
2018-05-10T01:21:51.093Z,63.34
2018-05-10T01:24:17.979Z,63.88
2018-05-10T01:26:45.802Z,64.50
2018-05-10T01:29:12.702Z,64.38
2018-05-10T01:31:39.610Z,64.01
2018-05-10T01:34:06.604Z,63.59
2018-05-10T01:36:33.520Z,63.29
2018-05-10T01:39:00.616Z,64.47
2018-05-10T01:41:27.575Z,64.00
2018-05-10T01:43:54.460Z,64.42
2018-05-10T01:46:21.427Z,64.92
2018-05-10T01:48:49.109Z,64.82
2018-05-10T01:51:15.999Z,64.34
2018-05-10T01:53:42.888Z,64.72
2018-05-10T01:56:09.912Z,65.54
2018-05-10T01:58:36.792Z,65.54
2018-05-10T02:01:03.684Z,66.59
2018-05-10T02:03:30.601Z,66.75
2018-05-10T02:05:57.486Z,65.23
2018-05-10T02:08:24.362Z,65.62
2018-05-10T02:10:51.615Z,65.54
2018-05-10T02:13:18.499Z,67.11
2018-05-10T02:15:45.372Z,67.37
2018-05-10T02:18:12.545Z,66.18
2018-05-10T02:20:40.201Z,66.35
2018-05-10T02:23:07.175Z,66.31
2018-05-10T02:25:34.240Z,66.38
2018-05-10T02:28:01.126Z,66.27
2018-05-10T02:30:28.004Z,66.79
2018-05-10T02:32:54.937Z,67.43
2018-05-10T02:35:22.592Z,66.78
2018-05-10T02:37:49.479Z,67.87
2018-05-10T02:40:16.607Z,68.92
2018-05-10T02:42:43.531Z,68.00
2018-05-10T02:45:10.408Z,68.77
2018-05-10T02:47:37.454Z,67.97
2018-05-10T02:50:04.369Z,67.23
2018-05-10T02:52:32.017Z,67.92
2018-05-10T02:54:59.063Z,68.13
2018-05-10T02:57:25.933Z,68.62
2018-05-10T02:59:53.569Z,68.17
2018-05-10T03:02:20.493Z,67.94
2018-05-10T03:04:47.384Z,68.42
2018-05-10T03:07:15.016Z,68.84
2018-05-10T03:09:41.947Z,67.96
2018-05-10T03:12:08.841Z,67.19
2018-05-10T03:14:36.477Z,67.96
2018-05-10T03:17:03.540Z,68.52
2018-05-10T03:19:31.179Z,68.70
2018-05-10T03:21:58.107Z,68.41
2018-05-10T03:24:25.216Z,69.20
2018-05-10T03:26:52.849Z,68.49
2018-05-10T03:29:19.737Z,68.09
2018-05-10T03:31:46.684Z,69.01
2018-05-10T03:34:13.566Z,68.78
2018-05-10T03:36:40.443Z,68.46
2018-05-10T03:39:07.366Z,68.87
2018-05-10T03:41:34.300Z,68.81
2018-05-10T03:44:01.189Z,69.38
2018-05-10T03:46:28.212Z,68.84
2018-05-10T03:48:55.037Z,69.21
2018-05-10T03:51:21.928Z,68.93
2018-05-10T03:53:49.611Z,68.88
2018-05-10T03:56:16.497Z,68.99
2018-05-10T03:58:43.392Z,69.11
2018-05-10T04:01:11.072Z,70.60
2018-05-10T04:03:56.310Z,69.13
2018-05-10T04:06:41.420Z,69.70
2018-05-10T04:09:26.759Z,69.34
2018-05-10T04:11:56.452Z,68.95
2018-05-10T04:14:23.395Z,68.85
2018-05-10T04:16:50.335Z,68.80
2018-05-10T04:19:17.206Z,68.98
2018-05-10T04:21:44.140Z,69.27
2018-05-10T04:24:11.219Z,68.50
2018-05-10T04:26:38.847Z,69.09
2018-05-10T04:29:05.733Z,68.89
2018-05-10T04:31:32.668Z,70.67
2018-05-10T04:34:00.293Z,70.92
2018-05-10T04:36:27.213Z,69.34
2018-05-10T04:38:54.196Z,69.04
2018-05-10T04:41:21.105Z,70.95
2018-05-10T04:43:47.984Z,71.19
2018-05-10T04:46:14.928Z,70.40
2018-05-10T04:48:41.834Z,69.55
2018-05-10T04:51:08.723Z,70.54
2018-05-10T04:53:35.653Z,70.66
2018-05-10T04:56:02.550Z,71.06
2018-05-10T04:58:30.175Z,70.71
2018-05-10T05:00:57.103Z,68.98
2018-05-10T05:03:24.062Z,67.63
2018-05-10T05:05:50.904Z,68.83
2018-05-10T05:08:17.832Z,67.29
2018-05-10T05:10:44.720Z,64.49
2018-05-10T05:13:11.631Z,65.19
2018-05-10T05:15:38.618Z,66.13
2018-05-10T05:18:06.251Z,63.74
2018-05-10T05:20:33.139Z,66.07
2018-05-10T05:23:00.805Z,62.19
2018-05-10T05:25:28.517Z,58.79
2018-05-10T05:27:56.089Z,59.05
2018-05-10T05:30:23.165Z,58.54
2018-05-10T05:32:50.850Z,62.53
2018-05-10T05:35:17.805Z,60.67
2018-05-10T05:37:44.915Z,60.34
2018-05-10T05:40:11.796Z,62.32
2018-05-10T05:42:38.668Z,61.55
2018-05-10T05:45:05.589Z,59.35
2018-05-10T05:47:32.469Z,57.50
2018-05-10T05:49:59.348Z,57.41
2018-05-10T05:52:27.028Z,64.23
2018-05-10T05:54:54.684Z,61.48
2018-05-10T05:57:22.296Z,64.81
2018-05-10T05:59:49.323Z,59.97
2018-05-10T06:02:16.199Z,58.29
2018-05-10T06:04:43.081Z,61.49
2018-05-10T06:07:10.749Z,61.80
2018-05-10T06:09:38.364Z,60.83
2018-05-10T06:12:05.987Z,59.51
2018-05-10T06:14:32.913Z,60.44
2018-05-10T06:17:00.240Z,57.49
2018-05-10T06:19:27.128Z,59.06
2018-05-10T06:21:54.191Z,58.87
2018-05-10T06:24:21.077Z,62.29
2018-05-10T06:26:48.327Z,60.46
2018-05-10T06:29:16.001Z,60.36
2018-05-10T06:31:42.893Z,62.47
2018-05-10T06:34:09.771Z,59.62
2018-05-10T06:36:36.700Z,58.53
2018-05-10T06:39:03.697Z,58.79
2018-05-10T06:41:30.694Z,57.35
2018-05-10T06:43:58.293Z,54.73
2018-05-10T06:46:25.184Z,54.68
2018-05-10T06:48:52.116Z,57.41
2018-05-10T06:51:19.025Z,57.73
2018-05-10T06:53:45.917Z,54.89
2018-05-10T06:56:12.862Z,52.68
2018-05-10T06:58:39.769Z,53.36
2018-05-10T07:01:06.684Z,51.71
2018-05-10T07:03:33.652Z,52.36
2018-05-10T07:06:00.541Z,51.76
2018-05-10T07:08:27.523Z,53.44
2018-05-10T07:10:54.736Z,52.79
2018-05-10T07:13:22.360Z,57.42
2018-05-10T07:15:49.351Z,55.47
2018-05-10T07:18:18.111Z,54.90
2018-05-10T07:20:45.051Z,54.42
2018-05-10T07:23:11.964Z,55.50
2018-05-10T07:25:39.039Z,54.44
2018-05-10T07:28:05.926Z,53.55
2018-05-10T07:30:32.821Z,53.77
2018-05-10T07:32:59.843Z,53.83
2018-05-10T07:35:26.684Z,53.56
2018-05-10T07:37:53.613Z,52.77
2018-05-10T07:40:20.655Z,55.67
2018-05-10T07:42:48.287Z,53.35
2018-05-10T07:45:15.172Z,53.59
2018-05-10T07:47:42.157Z,53.04
2018-05-10T07:50:09.062Z,52.13
2018-05-10T07:52:35.960Z,54.74
2018-05-10T07:55:03.005Z,54.15
2018-05-10T07:57:29.998Z,53.24
2018-05-10T07:59:57.840Z,50.85
2018-05-10T08:02:24.831Z,51.19
2018-05-10T08:04:51.729Z,50.86
2018-05-10T08:07:19.986Z,49.91
2018-05-10T08:09:47.256Z,49.01
2018-05-10T08:12:14.143Z,48.48
2018-05-10T08:14:41.050Z,48.90
2018-05-10T08:17:08.889Z,47.01
2018-05-10T08:19:35.873Z,46.91
2018-05-10T08:22:04.343Z,47.58
2018-05-10T08:24:31.723Z,48.50
2018-05-10T08:26:59.361Z,46.20
2018-05-10T08:29:30.271Z,44.82
2018-05-10T08:31:57.225Z,46.86
2018-05-10T08:34:24.870Z,46.64
2018-05-10T08:36:51.892Z,45.05
2018-05-10T08:39:18.760Z,44.33
2018-05-10T08:41:45.672Z,44.83
2018-05-10T08:44:13.325Z,44.63
2018-05-10T08:46:40.313Z,43.29
2018-05-10T08:49:07.224Z,44.39
2018-05-10T08:51:34.934Z,42.82
2018-05-10T08:54:01.846Z,45.60
2018-05-10T08:56:28.745Z,44.26
2018-05-10T08:58:55.796Z,44.13
2018-05-10T09:01:23.009Z,43.79
2018-05-10T09:03:49.906Z,43.93
2018-05-10T09:06:16.826Z,43.48
2018-05-10T09:08:43.718Z,42.15
2018-05-10T09:11:11.396Z,43.36
2018-05-10T09:13:39.063Z,43.73
2018-05-10T09:16:05.943Z,44.98
2018-05-10T09:18:32.823Z,45.71
2018-05-10T09:20:59.844Z,45.12
2018-05-10T09:23:26.722Z,46.61
2018-05-10T09:25:53.695Z,45.10
2018-05-10T09:28:20.559Z,46.20
2018-05-10T09:30:47.439Z,46.22
2018-05-10T09:33:14.336Z,47.54
2018-05-10T09:35:41.272Z,48.82
2018-05-10T09:38:08.896Z,48.13
2018-05-10T09:40:35.792Z,47.93
2018-05-10T09:43:02.726Z,50.31
2018-05-10T09:45:29.609Z,49.68
2018-05-10T09:47:56.501Z,50.11
2018-05-10T09:50:24.176Z,50.80
2018-05-10T09:52:51.792Z,50.90
2018-05-10T09:55:18.668Z,51.89
2018-05-10T09:57:46.491Z,52.30
2018-05-10T10:00:19.397Z,52.42
2018-05-10T10:02:46.335Z,51.69
2018-05-10T10:05:13.214Z,52.12
2018-05-10T10:07:40.832Z,52.43
2018-05-10T10:10:07.769Z,52.68
2018-05-10T10:12:34.655Z,51.23
2018-05-10T10:15:01.535Z,51.97
2018-05-10T10:17:28.462Z,51.51
2018-05-10T10:19:56.088Z,52.53
2018-05-10T10:22:23.031Z,51.72
2018-05-10T10:24:49.956Z,52.75
2018-05-10T10:27:16.836Z,53.32
2018-05-10T10:29:43.727Z,52.89
2018-05-10T10:32:10.651Z,52.42
2018-05-10T10:34:38.272Z,52.19
2018-05-10T10:37:05.151Z,53.69
2018-05-10T10:39:32.828Z,53.31
2018-05-10T10:42:00.452Z,53.92
2018-05-10T10:44:27.328Z,54.37
2018-05-10T10:46:55.139Z,54.39
2018-05-10T10:49:22.040Z,53.21
2018-05-10T10:51:49.676Z,55.01
2018-05-10T10:54:16.608Z,55.45
2018-05-10T10:56:44.284Z,56.55
2018-05-10T10:59:11.182Z,57.26
2018-05-10T11:01:38.131Z,55.35
2018-05-10T11:04:05.034Z,54.68
2018-05-10T11:06:31.916Z,54.44
2018-05-10T11:08:58.991Z,54.49
2018-05-10T11:11:25.885Z,54.63
2018-05-10T11:13:53.505Z,54.98
2018-05-10T11:16:20.531Z,54.54
2018-05-10T11:18:47.426Z,53.87
2018-05-10T11:21:14.314Z,54.87
2018-05-10T11:23:41.487Z,54.49
2018-05-10T11:26:08.360Z,53.44
2018-05-10T11:28:35.253Z,51.45
2018-05-10T11:31:02.202Z,53.32
2018-05-10T11:33:29.092Z,52.63
2018-05-10T11:35:56.015Z,53.14
2018-05-10T11:38:22.957Z,54.53
2018-05-10T11:40:49.844Z,54.22
2018-05-10T11:43:17.496Z,54.04
2018-05-10T11:45:44.563Z,52.69
2018-05-10T11:48:11.450Z,52.79
2018-05-10T11:50:38.344Z,53.17
2018-05-10T11:53:05.356Z,52.11
2018-05-10T11:55:32.249Z,53.35
2018-05-10T11:57:59.919Z,53.18
2018-05-10T12:00:27.583Z,54.38
2018-05-10T12:02:55.211Z,54.09
2018-05-10T12:05:22.095Z,54.31
2018-05-10T12:07:49.039Z,54.73
2018-05-10T12:10:16.708Z,56.90
2018-05-10T12:12:44.347Z,56.51
2018-05-10T12:15:11.378Z,56.72
2018-05-10T12:17:38.270Z,56.34
2018-05-10T12:20:05.160Z,56.58
2018-05-10T12:22:32.096Z,56.57
2018-05-10T12:24:59.092Z,56.27
2018-05-10T12:27:26.730Z,58.38
2018-05-10T12:29:53.919Z,56.77
2018-05-10T12:32:20.812Z,57.93
2018-05-10T12:34:47.725Z,57.27
2018-05-10T12:37:14.652Z,57.53
2018-05-10T12:39:41.543Z,57.04
2018-05-10T12:42:08.429Z,57.33
2018-05-10T12:44:35.356Z,57.81
2018-05-10T12:47:02.243Z,58.55
2018-05-10T12:49:29.129Z,59.61
2018-05-10T12:51:56.056Z,61.26
2018-05-10T12:54:22.945Z,60.06
2018-05-10T12:56:49.832Z,62.49
2018-05-10T12:59:16.767Z,61.51
2018-05-10T13:01:43.656Z,61.48
2018-05-10T13:04:10.814Z,61.32
2018-05-10T13:06:37.753Z,60.95
2018-05-10T13:09:04.724Z,61.41
2018-05-10T13:11:31.595Z,62.66
2018-05-10T13:13:59.389Z,62.78
2018-05-10T13:16:26.272Z,63.44
2018-05-10T13:18:53.168Z,63.70
2018-05-10T13:21:20.087Z,63.34
2018-05-10T13:23:47.708Z,63.71
2018-05-10T13:26:14.631Z,63.31
2018-05-10T13:28:41.555Z,63.16
2018-05-10T13:31:08.449Z,62.43
2018-05-10T13:33:35.335Z,62.42
2018-05-10T13:36:03.028Z,62.83
2018-05-10T13:38:30.002Z,62.62
2018-05-10T13:40:57.592Z,62.73
2018-05-10T13:43:26.968Z,63.05
2018-05-10T13:45:54.775Z,62.64
2018-05-10T13:48:22.788Z,63.61
2018-05-10T13:50:50.345Z,63.55
2018-05-10T13:53:17.884Z,63.52
2018-05-10T13:55:44.954Z,63.63
2018-05-10T13:58:12.177Z,63.80
2018-05-10T14:00:39.418Z,63.20
2018-05-10T14:03:06.776Z,63.52
2018-05-10T14:05:34.808Z,62.94
2018-05-10T14:08:02.124Z,62.66
2018-05-10T14:10:29.025Z,64.01
2018-05-10T14:12:55.963Z,64.63
2018-05-10T14:15:22.917Z,64.07
2018-05-10T14:17:49.759Z,63.48
2018-05-10T14:20:16.845Z,63.84
2018-05-10T14:22:44.471Z,62.83
2018-05-10T14:25:11.359Z,62.17
2018-05-10T14:27:38.403Z,62.27
2018-05-10T14:30:06.032Z,62.37
2018-05-10T14:32:32.950Z,62.42
2018-05-10T14:34:59.915Z,63.36
2018-05-10T14:37:27.577Z,62.02
2018-05-10T14:39:54.468Z,62.49
2018-05-10T14:42:21.609Z,62.06
2018-05-10T14:44:51.200Z,62.14
2018-05-10T14:47:18.096Z,61.16
2018-05-10T14:49:45.247Z,61.72
2018-05-10T14:52:12.133Z,62.67
2018-05-10T14:54:39.021Z,62.35
2018-05-10T14:57:05.959Z,62.67
2018-05-10T14:59:32.848Z,62.45
2018-05-10T15:01:59.869Z,62.33
2018-05-10T15:04:26.818Z,61.80
2018-05-10T15:06:54.141Z,61.91
2018-05-10T15:09:21.820Z,61.75
2018-05-10T15:11:48.748Z,62.17
2018-05-10T15:14:16.381Z,62.99
2018-05-10T15:16:43.276Z,62.86
2018-05-10T15:19:10.277Z,62.43
2018-05-10T15:21:37.182Z,62.35
2018-05-10T15:24:04.124Z,62.11
2018-05-10T15:26:31.256Z,63.12
2018-05-10T15:28:58.198Z,62.45
2018-05-10T15:31:25.819Z,62.83
2018-05-10T15:33:52.890Z,63.49
2018-05-10T15:36:19.792Z,63.16
2018-05-10T15:38:46.679Z,62.27
2018-05-10T15:41:13.708Z,61.77
2018-05-10T15:43:40.715Z,61.67
2018-05-10T15:46:07.647Z,62.42
2018-05-10T15:48:34.588Z,60.91
2018-05-10T15:51:02.225Z,59.38
2018-05-10T15:53:29.100Z,58.87
2018-05-10T15:55:56.852Z,57.19
2018-05-10T15:58:24.475Z,57.16
2018-05-10T16:00:51.357Z,56.69
2018-05-10T16:03:18.287Z,56.56
2018-05-10T16:05:45.390Z,56.54
2018-05-10T16:08:12.340Z,56.37
2018-05-10T16:10:39.386Z,56.54
2018-05-10T16:13:06.297Z,56.55
2018-05-10T16:15:33.218Z,55.55
2018-05-10T16:18:00.236Z,56.06
2018-05-10T16:20:27.124Z,56.75
2018-05-10T16:22:54.101Z,55.60
2018-05-10T16:25:21.299Z,54.61
2018-05-10T16:27:48.825Z,55.56
2018-05-10T16:30:16.584Z,56.17
2018-05-10T16:32:44.964Z,56.56
2018-05-10T16:35:12.036Z,57.04
2018-05-10T16:37:39.956Z,56.27
2018-05-10T16:40:06.976Z,57.03
2018-05-10T16:42:34.018Z,57.33
2018-05-10T16:45:00.934Z,57.41
2018-05-10T16:47:27.900Z,56.75
2018-05-10T16:49:54.800Z,57.77
2018-05-10T16:52:22.482Z,57.55
2018-05-10T16:54:49.412Z,57.87
2018-05-10T16:57:17.107Z,57.71
2018-05-10T16:59:43.983Z,57.63
2018-05-10T17:02:10.914Z,57.61
2018-05-10T17:04:37.814Z,56.90
2018-05-10T17:07:05.463Z,56.80
2018-05-10T17:09:33.145Z,57.17
2018-05-10T17:12:00.055Z,57.72
2018-05-10T17:14:26.957Z,58.29
2018-05-10T17:16:53.987Z,58.43
2018-05-10T17:19:20.873Z,59.14
2018-05-10T17:21:47.829Z,58.73
2018-05-10T17:24:14.961Z,59.40
2018-05-10T17:26:41.924Z,59.65
2018-05-10T17:29:08.829Z,59.66
2018-05-10T17:31:35.971Z,59.85
2018-05-10T17:34:02.923Z,60.91
2018-05-10T17:36:29.805Z,60.83
2018-05-10T17:38:56.748Z,60.14
2018-05-10T17:41:23.628Z,60.64
2018-05-10T17:43:51.270Z,61.06
2018-05-10T17:46:18.213Z,61.55
2018-05-10T17:48:45.124Z,62.48
2018-05-10T17:51:12.021Z,62.81
2018-05-10T17:53:39.141Z,63.20
2018-05-10T17:56:06.055Z,63.84
2018-05-10T17:58:32.987Z,64.77
2018-05-10T18:01:00.762Z,65.61
2018-05-10T18:03:28.384Z,65.97
2018-05-10T18:05:55.278Z,65.78
2018-05-10T18:08:22.354Z,66.88
2018-05-10T18:10:49.254Z,66.59
2018-05-10T18:13:16.892Z,67.15
2018-05-10T18:15:43.841Z,67.11
2018-05-10T18:18:11.492Z,66.45
2018-05-10T18:20:38.383Z,66.33
2018-05-10T18:23:05.320Z,66.22
2018-05-10T18:25:32.965Z,66.48
2018-05-10T18:27:59.866Z,67.06
2018-05-10T18:30:26.839Z,68.16
2018-05-10T18:32:53.780Z,67.86
2018-05-10T18:35:20.685Z,67.94
2018-05-10T18:37:47.623Z,68.09
2018-05-10T18:40:14.504Z,68.01
2018-05-10T18:42:41.840Z,68.04
2018-05-10T18:45:08.942Z,67.84
2018-05-10T18:47:35.832Z,67.63
2018-05-10T18:50:02.800Z,67.83
2018-05-10T18:52:29.772Z,67.86
2018-05-10T18:54:56.761Z,68.83
2018-05-10T18:57:23.589Z,69.30
2018-05-10T18:59:51.270Z,68.62
2018-05-10T19:02:18.160Z,68.92
2018-05-10T19:04:45.044Z,69.13
2018-05-10T19:07:12.819Z,69.04
2018-05-10T19:09:39.639Z,69.01
2018-05-10T19:12:07.289Z,69.05
2018-05-10T19:14:34.231Z,68.88
2018-05-10T19:17:01.124Z,68.11
2018-05-10T19:19:28.035Z,67.71
2018-05-10T19:21:54.970Z,67.67
2018-05-10T19:24:21.871Z,67.57
2018-05-10T19:26:48.792Z,67.62
2018-05-10T19:29:16.481Z,67.72
2018-05-10T19:31:43.524Z,67.78
2018-05-10T19:34:10.454Z,68.16
2018-05-10T19:36:37.421Z,67.81
2018-05-10T19:39:05.319Z,67.11
2018-05-10T19:41:32.229Z,67.21
2018-05-10T19:44:00.359Z,66.65
2018-05-10T19:46:27.263Z,67.91
2018-05-10T19:48:54.166Z,66.90
2018-05-10T19:51:22.030Z,66.80
2018-05-10T19:53:49.664Z,67.16
2018-05-10T19:56:16.568Z,66.98
2018-05-10T19:58:43.537Z,67.10
2018-05-10T20:01:10.429Z,67.33
2018-05-10T20:03:38.069Z,67.16
2018-05-10T20:06:05.024Z,68.43
2018-05-10T20:08:36.533Z,67.52
2018-05-10T20:11:04.203Z,68.70
2018-05-10T20:13:31.112Z,68.97
2018-05-10T20:15:58.835Z,68.14
2018-05-10T20:18:25.763Z,67.84
2018-05-10T20:20:52.652Z,68.44
2018-05-10T20:23:19.552Z,68.52
2018-05-10T20:25:46.651Z,68.63
2018-05-10T20:28:14.386Z,69.35
2018-05-10T20:30:41.969Z,68.79
2018-05-10T20:33:09.057Z,68.70
2018-05-10T20:35:35.947Z,68.39
2018-05-10T20:38:02.894Z,68.35
2018-05-10T20:40:29.863Z,69.23
2018-05-10T20:42:56.761Z,69.66
2018-05-10T20:45:23.660Z,69.19
2018-05-10T20:47:50.591Z,68.65
2018-05-10T20:50:17.477Z,68.83
2018-05-10T20:52:44.369Z,68.83
2018-05-10T20:55:11.352Z,69.12
2018-05-10T20:57:38.203Z,69.58
2018-05-10T21:00:05.842Z,69.26
2018-05-10T21:02:32.925Z,69.53
2018-05-10T21:04:59.811Z,69.99
2018-05-10T21:07:26.729Z,69.47
2018-05-10T21:09:53.713Z,69.66
2018-05-10T21:12:38.860Z,68.83
2018-05-10T21:15:05.809Z,68.54
2018-05-10T21:17:32.879Z,68.66
2018-05-10T21:19:59.817Z,69.26
2018-05-10T21:22:26.776Z,69.59
2018-05-10T21:24:53.675Z,69.66
2018-05-10T21:27:20.570Z,69.36
2018-05-10T21:29:47.581Z,69.10
2018-05-10T21:32:14.473Z,69.44
2018-05-10T21:34:41.399Z,69.39
2018-05-10T21:37:08.345Z,69.79
2018-05-10T21:39:35.271Z,71.06
2018-05-10T21:42:02.176Z,70.43
2018-05-10T21:44:29.867Z,70.08
2018-05-10T21:46:56.821Z,70.26
2018-05-10T21:49:42.183Z,70.00
2018-05-10T21:52:09.100Z,70.22
2018-05-10T21:54:36.005Z,70.06
2018-05-10T21:57:02.993Z,69.90
2018-05-10T21:59:30.634Z,70.25
2018-05-10T22:01:57.559Z,70.14
2018-05-10T22:04:24.657Z,70.54
2018-05-10T22:06:52.296Z,70.32
2018-05-10T22:09:19.221Z,70.47
2018-05-10T22:11:46.312Z,70.51
2018-05-10T22:14:13.976Z,70.66
2018-05-10T22:16:41.609Z,70.46
2018-05-10T22:19:08.562Z,70.36
2018-05-10T22:21:35.479Z,71.13
2018-05-10T22:24:02.428Z,71.23
2018-05-10T22:26:29.410Z,71.13
2018-05-10T22:28:56.317Z,71.12
2018-05-10T22:31:23.295Z,71.54
2018-05-10T22:33:50.251Z,71.52
2018-05-10T22:36:17.160Z,70.86
2018-05-10T22:38:44.052Z,70.87
2018-05-10T22:41:12.000Z,70.93
2018-05-10T22:43:38.892Z,71.51
2018-05-10T22:46:05.797Z,71.38
2018-05-10T22:48:32.816Z,70.83
2018-05-10T22:50:59.711Z,71.30
2018-05-10T22:53:27.362Z,71.49
2018-05-10T22:55:55.170Z,70.96
2018-05-10T22:58:22.072Z,71.61
2018-05-10T23:00:48.961Z,71.30
2018-05-10T23:03:16.045Z,71.46
2018-05-10T23:05:42.944Z,71.43
2018-05-10T23:08:10.063Z,71.85
2018-05-10T23:10:37.091Z,72.00
2018-05-10T23:13:04.009Z,72.46
2018-05-10T23:15:30.908Z,73.59
2018-05-10T23:17:58.736Z,72.91
2018-05-10T23:20:25.626Z,72.64
2018-05-10T23:22:53.259Z,73.35
2018-05-10T23:25:20.231Z,73.34
2018-05-10T23:27:47.892Z,74.06
2018-05-10T23:30:14.792Z,73.66
2018-05-10T23:32:41.840Z,74.22
2018-05-10T23:35:08.729Z,74.68
2018-05-10T23:37:36.372Z,74.57
2018-05-10T23:40:03.503Z,75.48
2018-05-10T23:42:30.397Z,74.80
2018-05-10T23:44:58.029Z,74.87
2018-05-10T23:47:24.956Z,74.94
2018-05-10T23:49:51.983Z,75.53
2018-05-10T23:52:18.876Z,75.88
2018-05-10T23:54:45.914Z,75.89
2018-05-10T23:57:12.832Z,76.64
2018-05-10T23:59:39.730Z,77.23
